createdAt,value
2022-08-17T00:00:43.332Z,78.09
2022-08-17T00:03:17.313Z,77.89
2022-08-17T00:05:49.842Z,77.91
2022-08-17T00:08:21.653Z,78.21
2022-08-17T00:10:51.169Z,78.27
2022-08-17T00:13:25.291Z,78.20
2022-08-17T00:15:58.677Z,78.10
2022-08-17T00:19:02.129Z,78.29
2022-08-17T00:21:23.840Z,78.22
2022-08-17T00:23:54.302Z,78.49
2022-08-17T00:26:34.870Z,78.58
2022-08-17T00:29:20.002Z,78.42
2022-08-17T00:31:49.352Z,78.44
2022-08-17T00:34:19.275Z,78.49
2022-08-17T00:36:47.576Z,78.69
2022-08-17T00:39:15.828Z,78.86
2022-08-17T00:41:44.612Z,78.81
2022-08-17T00:44:13.083Z,78.97
2022-08-17T00:46:44.316Z,78.99
2022-08-17T00:49:15.031Z,79.01
2022-08-17T00:51:50.464Z,78.97
2022-08-17T00:54:24.961Z,79.06
2022-08-17T00:56:59.892Z,79.23
2022-08-17T00:59:32.838Z,79.13
2022-08-17T01:02:01.757Z,79.16
2022-08-17T01:04:32.869Z,79.18
2022-08-17T01:07:04.446Z,79.55
2022-08-17T01:09:33.931Z,79.52
2022-08-17T01:12:02.245Z,79.35
2022-08-17T01:14:30.544Z,79.57
2022-08-17T01:17:00.186Z,79.70
2022-08-17T01:19:32.221Z,79.52
2022-08-17T01:22:10.125Z,79.42
2022-08-17T01:24:45.916Z,79.73
2022-08-17T01:27:15.634Z,79.73
2022-08-17T01:29:49.064Z,79.77
2022-08-17T01:32:17.979Z,79.80
2022-08-17T01:34:50.447Z,79.67
2022-08-17T01:37:22.017Z,79.81
2022-08-17T01:39:57.042Z,79.91
2022-08-17T01:42:34.411Z,79.82
2022-08-17T01:45:12.568Z,79.97
2022-08-17T01:47:41.747Z,79.83
2022-08-17T01:50:15.779Z,80.10
2022-08-17T01:52:45.785Z,80.07
2022-08-17T01:55:18.709Z,79.87
2022-08-17T01:57:47.183Z,80.00
2022-08-17T02:00:18.268Z,80.16
2022-08-17T02:02:46.638Z,80.40
2022-08-17T02:05:15.510Z,80.52
2022-08-17T02:07:59.574Z,80.47
2022-08-17T02:10:33.927Z,80.47
2022-08-17T02:13:03.311Z,80.64
2022-08-17T02:15:31.978Z,80.75
2022-08-17T02:18:00.674Z,80.76
2022-08-17T02:20:41.293Z,80.57
2022-08-17T02:23:13.696Z,80.65
2022-08-17T02:25:47.689Z,80.59
2022-08-17T02:28:16.851Z,80.49
2022-08-17T02:31:00.310Z,80.62
2022-08-17T02:33:41.555Z,80.71
2022-08-17T02:36:11.342Z,80.71
2022-08-17T02:38:40.264Z,80.92
2022-08-17T02:41:12.648Z,81.07
2022-08-17T02:43:41.118Z,80.80
2022-08-17T02:46:09.639Z,81.21
2022-08-17T02:48:37.877Z,81.19
2022-08-17T02:51:06.169Z,80.90
2022-08-17T02:53:35.920Z,80.99
2022-08-17T02:56:05.264Z,81.07
2022-08-17T02:58:36.066Z,81.39
2022-08-17T03:01:07.053Z,81.10
2022-08-17T03:03:36.624Z,81.23
2022-08-17T03:06:07.643Z,81.34
2022-08-17T03:08:37.423Z,81.23
2022-08-17T03:11:06.050Z,81.31
2022-08-17T03:13:35.727Z,81.33
2022-08-17T03:16:04.187Z,81.38
2022-08-17T03:18:32.649Z,81.28
2022-08-17T03:21:04.471Z,81.29
2022-08-17T03:23:33.759Z,81.31
2022-08-17T03:26:02.219Z,81.61
2022-08-17T03:28:30.665Z,81.57
2022-08-17T03:31:00.337Z,81.53
2022-08-17T03:33:28.646Z,81.33
2022-08-17T03:35:57.615Z,81.73
2022-08-17T03:38:26.345Z,81.55
2022-08-17T03:40:59.509Z,81.79
2022-08-17T03:43:31.727Z,81.80
2022-08-17T03:46:29.009Z,81.86
2022-08-17T03:49:20.873Z,81.82
2022-08-17T03:52:06.468Z,81.94
2022-08-17T03:54:52.154Z,81.95
2022-08-17T03:57:20.465Z,81.94
2022-08-17T03:59:48.900Z,81.69
2022-08-17T04:02:22.472Z,81.90
2022-08-17T04:04:52.295Z,82.18
2022-08-17T04:07:22.774Z,82.08
2022-08-17T04:09:51.087Z,82.06
2022-08-17T04:12:23.157Z,82.11
2022-08-17T04:14:54.669Z,82.28
2022-08-17T04:17:28.996Z,82.16
2022-08-17T04:19:57.800Z,82.41
2022-08-17T04:22:31.818Z,82.51
2022-08-17T04:25:07.183Z,82.81
2022-08-17T04:27:35.800Z,82.78
2022-08-17T04:30:06.973Z,82.95
2022-08-17T04:32:59.477Z,82.66
2022-08-17T04:35:43.653Z,82.56
2022-08-17T04:38:15.360Z,82.84
2022-08-17T04:41:01.727Z,82.61
2022-08-17T04:43:32.034Z,82.95
2022-08-17T04:46:02.771Z,83.06
2022-08-17T04:48:37.400Z,83.05
2022-08-17T04:51:10.821Z,83.14
2022-08-17T04:53:41.128Z,83.18
2022-08-17T04:56:16.213Z,83.31
2022-08-17T04:58:46.730Z,83.06
2022-08-17T05:01:15.441Z,82.93
2022-08-17T05:03:45.437Z,83.04
2022-08-17T05:06:13.989Z,83.29
2022-08-17T05:08:42.614Z,82.90
2022-08-17T05:11:10.894Z,83.31
2022-08-17T05:13:39.157Z,82.93
2022-08-17T05:16:09.120Z,82.95
2022-08-17T05:18:38.873Z,83.28
2022-08-17T05:21:08.938Z,83.37
2022-08-17T05:23:41.830Z,83.50
2022-08-17T05:26:26.190Z,83.55
2022-08-17T05:29:02.438Z,83.38
2022-08-17T05:31:32.407Z,83.37
2022-08-17T05:34:00.773Z,83.18
2022-08-17T05:36:43.543Z,83.46
2022-08-17T05:39:16.089Z,83.16
2022-08-17T05:41:48.912Z,83.56
2022-08-17T05:44:18.105Z,83.23
2022-08-17T05:46:52.737Z,83.29
2022-08-17T05:49:28.459Z,83.25
2022-08-17T05:52:21.781Z,83.45
2022-08-17T05:55:05.376Z,83.33
2022-08-17T05:58:01.000Z,83.37
2022-08-17T06:00:42.759Z,83.30
2022-08-17T06:03:28.230Z,83.15
2022-08-17T06:06:10.135Z,83.02
2022-08-17T06:08:51.967Z,83.27
2022-08-17T06:11:29.525Z,82.89
2022-08-17T06:14:23.309Z,83.05
2022-08-17T06:16:56.326Z,83.07
2022-08-17T06:19:37.258Z,83.04
2022-08-17T06:22:06.831Z,83.11
2022-08-17T06:24:40.503Z,82.91
2022-08-17T06:27:15.154Z,83.00
2022-08-17T06:29:54.270Z,82.73
2022-08-17T06:32:23.198Z,82.56
2022-08-17T06:34:52.591Z,82.41
2022-08-17T06:38:01.564Z,82.27
2022-08-17T06:40:57.509Z,82.18
2022-08-17T06:43:48.199Z,82.21
2022-08-17T06:46:25.300Z,82.13
2022-08-17T06:49:08.185Z,81.83
2022-08-17T06:51:41.871Z,81.67
2022-08-17T06:54:20.028Z,81.52
2022-08-17T06:56:58.348Z,81.50
2022-08-17T06:59:36.289Z,81.33
2022-08-17T07:02:51.160Z,81.35
2022-08-17T07:05:25.282Z,81.29
2022-08-17T07:08:02.567Z,80.88
2022-08-17T07:10:39.018Z,80.58
2022-08-17T07:13:32.422Z,80.45
2022-08-17T07:16:14.710Z,80.16
2022-08-17T07:18:43.834Z,79.72
2022-08-17T07:21:26.510Z,79.55
2022-08-17T07:24:30.069Z,79.22
2022-08-17T07:27:09.328Z,78.72
2022-08-17T07:29:49.445Z,78.50
2022-08-17T07:32:23.142Z,78.72
2022-08-17T07:35:17.983Z,78.84
2022-08-17T07:37:54.153Z,78.92
2022-08-17T07:40:32.096Z,78.95
2022-08-17T07:43:26.360Z,79.23
2022-08-17T07:46:37.136Z,79.21
2022-08-17T07:49:33.639Z,79.02
2022-08-17T07:52:47.433Z,78.76
2022-08-17T07:54:56.112Z,78.32
2022-08-17T07:57:37.099Z,78.06
2022-08-17T08:00:19.387Z,77.69
2022-08-17T08:03:18.312Z,77.28
2022-08-17T08:05:53.587Z,77.03
2022-08-17T08:08:37.788Z,76.28
2022-08-17T08:11:11.270Z,75.96
2022-08-17T08:13:43.661Z,75.55
2022-08-17T08:16:25.341Z,75.49
2022-08-17T08:18:58.406Z,74.70
2022-08-17T08:21:43.406Z,74.69
2022-08-17T08:24:37.688Z,74.58
2022-08-17T08:27:23.063Z,74.00
2022-08-17T08:29:58.367Z,73.96
2022-08-17T08:32:48.030Z,73.94
2022-08-17T08:35:32.443Z,73.62
2022-08-17T08:38:13.484Z,73.36
2022-08-17T08:41:22.614Z,73.20
2022-08-17T08:44:06.058Z,73.06
2022-08-17T08:46:47.334Z,72.68
2022-08-17T08:50:03.420Z,72.69
2022-08-17T08:53:18.929Z,72.45
2022-08-17T08:55:55.936Z,72.04
2022-08-17T08:58:41.874Z,72.22
2022-08-17T09:01:22.160Z,72.46
2022-08-17T09:04:28.694Z,72.43
2022-08-17T09:07:17.279Z,72.45
2022-08-17T09:09:59.485Z,72.31
2022-08-17T09:12:37.426Z,72.82
2022-08-17T09:15:13.989Z,72.86
2022-08-17T09:18:21.387Z,72.72
2022-08-17T09:20:50.367Z,72.73
2022-08-17T09:23:32.460Z,72.37
2022-08-17T09:26:09.779Z,72.05
2022-08-17T09:28:42.609Z,71.80
2022-08-17T09:31:15.931Z,71.72
2022-08-17T09:33:48.634Z,70.98
2022-08-17T09:36:24.181Z,70.85
2022-08-17T09:39:02.002Z,70.27
2022-08-17T09:41:39.543Z,69.85
2022-08-17T09:44:29.038Z,69.42
2022-08-17T09:47:05.707Z,69.17
2022-08-17T09:49:42.509Z,69.04
2022-08-17T09:52:18.619Z,68.52
2022-08-17T09:54:48.029Z,68.34
2022-08-17T09:57:34.272Z,68.45
2022-08-17T10:00:20.475Z,67.79
2022-08-17T10:03:21.781Z,67.97
2022-08-17T10:05:57.649Z,67.98
2022-08-17T10:08:36.525Z,66.79
2022-08-17T10:11:19.507Z,67.14
2022-08-17T10:13:59.576Z,66.87
2022-08-17T10:16:38.303Z,66.69
2022-08-17T10:19:17.018Z,66.82
2022-08-17T10:22:32.419Z,66.46
2022-08-17T10:25:23.850Z,65.86
2022-08-17T10:27:59.183Z,65.89
2022-08-17T10:30:33.435Z,65.54
2022-08-17T10:33:05.354Z,64.82
2022-08-17T10:35:45.530Z,63.71
2022-08-17T10:38:38.682Z,63.28
2022-08-17T10:41:30.052Z,62.93
2022-08-17T10:44:38.632Z,63.56
2022-08-17T10:47:09.286Z,62.54
2022-08-17T10:49:39.718Z,62.64
2022-08-17T10:52:50.184Z,61.85
2022-08-17T10:55:20.698Z,61.61
2022-08-17T10:57:51.199Z,61.54
2022-08-17T11:00:58.299Z,61.11
2022-08-17T11:03:27.629Z,61.34
2022-08-17T11:06:12.701Z,61.34
2022-08-17T11:09:20.915Z,60.68
2022-08-17T11:12:32.730Z,60.78
2022-08-17T11:15:22.151Z,60.57
2022-08-17T11:18:27.365Z,60.00
2022-08-17T11:21:41.443Z,60.47
2022-08-17T11:24:20.766Z,60.09
2022-08-17T11:27:12.280Z,59.86
2022-08-17T11:29:56.835Z,54.52
2022-08-17T11:32:47.383Z,59.27
2022-08-17T11:35:42.636Z,59.15
2022-08-17T11:38:25.803Z,58.98
2022-08-17T11:41:22.321Z,58.99
2022-08-17T11:44:23.924Z,59.25
2022-08-17T11:47:28.054Z,59.45
2022-08-17T11:50:36.574Z,59.35
2022-08-17T11:53:05.526Z,59.61
2022-08-17T11:56:08.078Z,59.53
2022-08-17T11:58:41.945Z,59.83
2022-08-17T12:01:13.742Z,59.64
2022-08-17T12:03:54.217Z,59.77
2022-08-17T12:06:48.733Z,59.85
2022-08-17T12:09:22.145Z,59.98
2022-08-17T12:12:12.007Z,59.45
2022-08-17T12:15:09.626Z,59.92
2022-08-17T12:17:52.275Z,59.60
2022-08-17T12:20:27.853Z,58.95
2022-08-17T12:23:10.530Z,58.61
2022-08-17T12:25:44.532Z,58.41
2022-08-17T12:28:25.314Z,58.26
2022-08-17T12:30:57.326Z,58.24
2022-08-17T12:33:28.837Z,58.14
2022-08-17T12:36:02.834Z,58.49
2022-08-17T12:38:34.769Z,58.75
2022-08-17T12:41:26.353Z,59.26
2022-08-17T12:44:01.622Z,59.68
2022-08-17T12:46:35.903Z,59.72
2022-08-17T12:49:22.869Z,59.45
2022-08-17T12:51:56.986Z,59.57
2022-08-17T12:54:33.878Z,59.79
2022-08-17T12:57:07.378Z,59.74
2022-08-17T12:59:40.696Z,60.00
2022-08-17T13:02:21.424Z,60.09
2022-08-17T13:04:50.102Z,60.33
2022-08-17T13:07:30.941Z,60.51
2022-08-17T13:09:59.694Z,60.64
2022-08-17T13:12:34.550Z,61.00
2022-08-17T13:15:03.304Z,60.82
2022-08-17T13:17:36.593Z,61.19
2022-08-17T13:20:14.734Z,60.98
2022-08-17T13:22:44.486Z,61.39
2022-08-17T13:25:17.831Z,61.44
2022-08-17T13:27:49.292Z,61.48
2022-08-17T13:30:27.979Z,62.00
2022-08-17T13:32:58.696Z,62.05
2022-08-17T13:35:44.142Z,62.12
2022-08-17T13:38:40.517Z,61.92
2022-08-17T13:41:08.869Z,62.45
2022-08-17T13:43:49.581Z,62.66
2022-08-17T13:46:24.498Z,62.96
2022-08-17T13:49:03.784Z,62.78
2022-08-17T13:51:36.661Z,62.87
2022-08-17T13:54:21.594Z,63.32
2022-08-17T13:57:01.610Z,63.32
2022-08-17T13:59:54.278Z,63.54
2022-08-17T14:02:27.233Z,63.37
2022-08-17T14:05:00.575Z,63.34
2022-08-17T14:07:36.486Z,63.52
2022-08-17T14:10:14.243Z,63.76
2022-08-17T14:12:45.298Z,63.69
2022-08-17T14:15:16.739Z,63.52
2022-08-17T14:17:45.315Z,63.46
2022-08-17T14:20:15.228Z,63.52
2022-08-17T14:22:48.286Z,63.78
2022-08-17T14:25:20.701Z,63.68
2022-08-17T14:27:53.469Z,63.78
2022-08-17T14:30:25.283Z,63.75
2022-08-17T14:32:55.315Z,63.74
2022-08-17T14:35:27.874Z,63.40
2022-08-17T14:37:56.552Z,63.62
2022-08-17T14:40:25.702Z,63.67
2022-08-17T14:42:57.653Z,63.71
2022-08-17T14:45:32.051Z,63.64
2022-08-17T14:48:05.653Z,63.73
2022-08-17T14:50:36.312Z,64.31
2022-08-17T14:53:06.243Z,64.46
2022-08-17T14:55:35.506Z,64.50
2022-08-17T14:58:04.902Z,64.61
2022-08-17T15:00:33.304Z,64.57
2022-08-17T15:03:03.271Z,64.74
2022-08-17T15:05:36.969Z,64.50
2022-08-17T15:08:06.276Z,64.60
2022-08-17T15:10:35.220Z,64.46
2022-08-17T15:13:03.836Z,64.79
2022-08-17T15:15:32.648Z,64.92
2022-08-17T15:18:02.426Z,64.75
2022-08-17T15:20:31.585Z,64.83
2022-08-17T15:23:01.250Z,65.40
2022-08-17T15:25:32.764Z,65.27
2022-08-17T15:28:02.330Z,65.35
2022-08-17T15:30:31.903Z,65.36
2022-08-17T15:33:03.608Z,65.63
2022-08-17T15:35:34.325Z,65.57
2022-08-17T15:38:11.529Z,65.69
2022-08-17T15:40:44.179Z,65.44
2022-08-17T15:43:17.527Z,65.80
2022-08-17T15:45:52.907Z,65.63
2022-08-17T15:48:40.692Z,65.58
2022-08-17T15:51:12.090Z,65.31
2022-08-17T15:53:43.328Z,65.41
2022-08-17T15:56:13.655Z,65.24
2022-08-17T15:58:43.649Z,65.39
2022-08-17T16:01:18.733Z,65.26
2022-08-17T16:04:06.535Z,65.19
2022-08-17T16:06:35.715Z,65.25
2022-08-17T16:09:05.568Z,64.96
2022-08-17T16:11:33.843Z,65.07
2022-08-17T16:14:02.142Z,65.21
2022-08-17T16:16:31.278Z,65.09
2022-08-17T16:18:59.627Z,65.07
2022-08-17T16:21:29.708Z,65.09
2022-08-17T16:24:06.217Z,65.11
2022-08-17T16:26:41.853Z,65.18
2022-08-17T16:29:10.564Z,65.20
2022-08-17T16:31:39.060Z,65.20
2022-08-17T16:34:17.579Z,65.07
2022-08-17T16:36:55.333Z,65.12
2022-08-17T16:39:29.011Z,64.95
2022-08-17T16:41:58.291Z,65.00
2022-08-17T16:44:30.917Z,65.07
2022-08-17T16:47:01.017Z,65.34
2022-08-17T16:49:36.929Z,65.10
2022-08-17T16:52:10.608Z,65.23
2022-08-17T16:54:44.250Z,65.06
2022-08-17T16:57:13.382Z,65.11
2022-08-17T16:59:47.468Z,65.21
2022-08-17T17:02:17.922Z,65.01
2022-08-17T17:04:59.341Z,65.34
2022-08-17T17:07:50.044Z,64.96
2022-08-17T17:10:23.980Z,64.82
2022-08-17T17:13:01.414Z,65.00
2022-08-17T17:15:49.385Z,64.59
2022-08-17T17:18:17.766Z,64.76
2022-08-17T17:20:55.726Z,64.94
2022-08-17T17:23:42.267Z,64.61
2022-08-17T17:26:33.195Z,64.82
2022-08-17T17:29:20.833Z,64.71
2022-08-17T17:32:05.509Z,64.34
2022-08-17T17:34:36.357Z,64.20
2022-08-17T17:37:11.844Z,64.23
2022-08-17T17:39:48.958Z,64.28
2022-08-17T17:42:24.512Z,64.21
2022-08-17T17:47:31.289Z,64.10
2022-08-17T17:50:03.141Z,63.92
2022-08-17T17:52:45.320Z,63.91
2022-08-17T17:55:30.377Z,63.88
2022-08-17T17:58:13.331Z,64.04
2022-08-17T18:00:48.994Z,63.93
2022-08-17T18:03:43.979Z,64.05
2022-08-17T18:06:29.259Z,64.14
2022-08-17T18:09:19.318Z,64.27
2022-08-17T18:12:13.078Z,64.29
2022-08-17T18:15:21.708Z,64.36
2022-08-17T18:18:38.590Z,64.58
2022-08-17T18:21:16.391Z,64.77
2022-08-17T18:23:52.546Z,64.78
2022-08-17T18:26:48.086Z,64.89
2022-08-17T18:29:35.876Z,64.94
2022-08-17T18:32:27.611Z,65.27
2022-08-17T18:35:02.052Z,65.52
2022-08-17T18:37:39.834Z,65.49
2022-08-17T18:40:33.901Z,65.85
2022-08-17T18:43:24.291Z,66.09
2022-08-17T18:45:55.834Z,66.06
2022-08-17T18:48:33.405Z,66.45
2022-08-17T18:51:26.258Z,66.52
2022-08-17T18:54:21.303Z,66.78
2022-08-17T18:56:55.435Z,66.95
2022-08-17T18:59:36.055Z,67.27
2022-08-17T19:02:41.807Z,67.31
2022-08-17T19:05:34.294Z,67.42
2022-08-17T19:08:24.186Z,67.77
2022-08-17T19:10:56.853Z,67.83
2022-08-17T19:13:32.316Z,67.96
2022-08-17T19:16:13.897Z,68.08
2022-08-17T19:18:50.184Z,68.12
2022-08-17T19:21:26.402Z,68.09
2022-08-17T19:24:01.660Z,68.31
2022-08-17T19:26:54.855Z,68.05
2022-08-17T19:29:30.973Z,68.05
2022-08-17T19:32:00.470Z,67.84
2022-08-17T19:34:35.436Z,68.26
2022-08-17T19:37:13.265Z,68.10
2022-08-17T19:39:51.813Z,68.22
2022-08-17T19:42:42.482Z,68.08
2022-08-17T19:45:28.225Z,68.16
2022-08-17T19:48:13.556Z,68.20
2022-08-17T19:50:53.241Z,68.30
2022-08-17T19:53:54.502Z,68.20
2022-08-17T19:56:34.723Z,68.45
2022-08-17T19:59:11.712Z,68.68
2022-08-17T20:01:46.756Z,68.86
2022-08-17T20:04:32.374Z,69.20
2022-08-17T20:07:07.820Z,69.48
2022-08-17T20:09:40.711Z,69.94
2022-08-17T20:12:17.362Z,70.34
2022-08-17T20:14:55.388Z,70.83
2022-08-17T20:17:28.935Z,71.28
2022-08-17T20:20:06.400Z,71.51
2022-08-17T20:22:52.043Z,72.07
2022-08-17T20:25:34.131Z,72.64
2022-08-17T20:28:15.674Z,73.40
2022-08-17T20:30:45.033Z,73.67
2022-08-17T20:33:27.703Z,74.22
2022-08-17T20:36:17.340Z,74.73
2022-08-17T20:38:50.343Z,75.33
2022-08-17T20:41:22.791Z,75.87
2022-08-17T20:44:05.396Z,76.10
2022-08-17T20:46:57.968Z,76.15
2022-08-17T20:49:39.720Z,76.45
2022-08-17T20:52:13.442Z,76.62
2022-08-17T20:54:51.333Z,77.01
2022-08-17T20:57:48.824Z,77.08
2022-08-17T21:00:44.999Z,77.46
2022-08-17T21:03:50.376Z,77.63
2022-08-17T21:06:24.482Z,77.84
2022-08-17T21:08:58.852Z,77.67
2022-08-17T21:12:03.898Z,78.27
2022-08-17T21:15:02.187Z,77.92
2022-08-17T21:17:49.742Z,78.29
2022-08-17T21:20:33.244Z,78.23
2022-08-17T21:23:22.225Z,78.62
2022-08-17T21:26:19.939Z,78.61
2022-08-17T21:29:14.711Z,78.43
2022-08-17T21:32:19.273Z,78.75
2022-08-17T21:35:28.512Z,78.74
2022-08-17T21:38:05.017Z,78.56
2022-08-17T21:40:35.280Z,79.07
2022-08-17T21:43:25.116Z,78.91
2022-08-17T21:46:04.516Z,79.37
2022-08-17T21:48:44.343Z,79.15
2022-08-17T21:51:19.065Z,79.21
2022-08-17T21:53:52.304Z,79.46
2022-08-17T21:56:28.349Z,79.57
2022-08-17T21:59:03.017Z,79.88
2022-08-17T22:01:35.755Z,79.86
2022-08-17T22:04:19.092Z,79.95
2022-08-17T22:06:56.475Z,80.08
2022-08-17T22:09:29.028Z,79.98
2022-08-17T22:12:06.349Z,80.24
2022-08-17T22:14:52.628Z,80.39
2022-08-17T22:17:25.520Z,80.42
2022-08-17T22:19:58.983Z,80.59
2022-08-17T22:22:59.901Z,80.70
2022-08-17T22:25:29.560Z,80.85
2022-08-17T22:28:01.111Z,80.94
2022-08-17T22:30:37.182Z,80.93
2022-08-17T22:33:32.420Z,80.84
2022-08-17T22:36:26.029Z,81.18
2022-08-17T22:38:59.539Z,81.13
2022-08-17T22:41:41.769Z,81.29
2022-08-17T22:44:20.477Z,81.18
2022-08-17T22:47:22.731Z,81.34
2022-08-17T22:49:54.707Z,81.58
2022-08-17T22:52:34.106Z,81.54
2022-08-17T22:55:27.051Z,81.43
2022-08-17T22:58:09.239Z,81.72
2022-08-17T23:00:41.668Z,81.74
2022-08-17T23:03:18.920Z,81.75
2022-08-17T23:06:02.732Z,81.79
2022-08-17T23:08:35.553Z,82.18
2022-08-17T23:11:04.054Z,82.28
2022-08-17T23:13:33.417Z,82.10
2022-08-17T23:16:02.434Z,82.54
2022-08-17T23:18:30.770Z,82.65
2022-08-17T23:20:59.111Z,82.64
2022-08-17T23:23:27.560Z,82.79
2022-08-17T23:25:57.254Z,82.76
2022-08-17T23:28:25.581Z,83.03
2022-08-17T23:30:53.957Z,82.94
2022-08-17T23:33:30.253Z,83.12
2022-08-17T23:35:59.600Z,82.97
2022-08-17T23:38:28.811Z,82.86
2022-08-17T23:41:02.931Z,83.18
2022-08-17T23:43:31.637Z,83.28
2022-08-17T23:46:03.585Z,83.39
2022-08-17T23:48:35.975Z,83.35
2022-08-17T23:51:09.697Z,83.59
2022-08-17T23:53:44.077Z,83.41
2022-08-17T23:56:13.943Z,83.55
2022-08-17T23:58:44.917Z,83.57
